createdAt,value
2022-08-10T00:00:00.480Z,3.20
2022-08-10T00:01:00.472Z,3.40
2022-08-10T00:02:00.555Z,3.30
2022-08-10T00:03:00.533Z,3.50
2022-08-10T00:04:00.452Z,3.40
2022-08-10T00:05:00.462Z,3.50
2022-08-10T00:06:00.813Z,3.20
2022-08-10T00:07:00.443Z,3.30
2022-08-10T00:08:00.500Z,3.50
2022-08-10T00:09:00.572Z,3.30
2022-08-10T00:10:00.426Z,3.50
2022-08-10T00:11:00.432Z,3.40
2022-08-10T00:12:00.422Z,3.50
2022-08-10T00:13:00.412Z,3.40
2022-08-10T00:14:00.623Z,3.90
2022-08-10T00:15:00.511Z,3.70
2022-08-10T00:16:00.368Z,3.70
2022-08-10T00:17:00.370Z,3.60
2022-08-10T00:18:00.352Z,3.50
2022-08-10T00:19:00.363Z,3.60
2022-08-10T00:20:03.269Z,3.60
2022-08-10T00:21:00.334Z,3.50
2022-08-10T00:22:00.330Z,3.80
2022-08-10T00:23:00.322Z,3.70
2022-08-10T00:24:00.834Z,3.60
2022-08-10T00:25:00.318Z,3.40
2022-08-10T00:26:00.327Z,3.60
2022-08-10T00:27:49.982Z,3.40
2022-08-10T00:28:03.099Z,3.40
2022-08-10T00:29:00.398Z,3.50
2022-08-10T00:30:00.281Z,3.60
2022-08-10T00:31:00.269Z,3.70
2022-08-10T00:32:00.270Z,3.40
2022-08-10T00:33:00.419Z,3.50
2022-08-10T00:34:00.285Z,3.70
2022-08-10T00:35:00.269Z,3.30
2022-08-10T00:36:00.568Z,3.50
2022-08-10T00:37:00.228Z,3.40
2022-08-10T00:38:00.682Z,3.70
2022-08-10T00:39:00.740Z,3.40
2022-08-10T00:40:00.737Z,3.40
2022-08-10T00:41:00.197Z,3.70
2022-08-10T00:42:01.942Z,3.80
2022-08-10T00:43:00.178Z,3.60
2022-08-10T00:44:00.188Z,3.60
2022-08-10T00:45:00.982Z,4.00
2022-08-10T00:46:00.529Z,3.50
2022-08-10T00:47:00.375Z,3.60
2022-08-10T00:48:00.840Z,4.00
2022-08-10T00:49:00.593Z,3.70
2022-08-10T00:50:00.176Z,3.60
2022-08-10T00:51:00.134Z,3.90
2022-08-10T00:52:00.378Z,3.70
2022-08-10T00:53:00.117Z,3.80
2022-08-10T00:54:00.507Z,3.50
2022-08-10T00:55:00.121Z,4.00
2022-08-10T00:57:12.372Z,3.70
2022-08-10T00:57:15.988Z,3.70
2022-08-10T00:58:00.086Z,3.50
2022-08-10T00:59:00.216Z,3.80
2022-08-10T01:00:00.694Z,3.60
2022-08-10T01:01:00.486Z,4.00
2022-08-10T01:02:11.188Z,3.50
2022-08-10T01:03:00.126Z,3.60
2022-08-10T01:04:57.774Z,3.70
2022-08-10T01:05:01.903Z,3.80
2022-08-10T01:06:00.026Z,3.70
2022-08-10T01:07:00.037Z,3.70
2022-08-10T01:08:00.097Z,3.80
2022-08-10T01:09:00.027Z,3.50
2022-08-10T01:10:00.109Z,3.80
2022-08-10T01:11:00.145Z,3.60
2022-08-10T01:12:37.408Z,3.90
2022-08-10T01:13:00.006Z,3.70
2022-08-10T01:13:59.983Z,3.60
2022-08-10T01:15:00.297Z,3.70
2022-08-10T01:15:59.946Z,3.80
2022-08-10T01:17:00.285Z,3.80
2022-08-10T01:17:59.946Z,3.50
2022-08-10T01:18:59.975Z,4.10
2022-08-10T01:19:59.936Z,3.80
2022-08-10T01:20:59.926Z,4.00
2022-08-10T01:21:59.922Z,3.80
2022-08-10T01:22:59.914Z,3.70
2022-08-10T01:24:00.173Z,3.80
2022-08-10T01:25:00.163Z,3.80
2022-08-10T01:26:12.329Z,3.80
2022-08-10T01:26:59.882Z,4.00
2022-08-10T01:28:00.019Z,4.20
2022-08-10T01:29:00.004Z,4.00
2022-08-10T01:29:59.888Z,4.00
2022-08-10T01:30:59.864Z,4.20
2022-08-10T01:31:59.985Z,4.40
2022-08-10T01:32:59.842Z,4.20
2022-08-10T01:34:02.647Z,4.30
2022-08-10T01:34:59.892Z,4.00
2022-08-10T01:35:59.817Z,4.00
2022-08-10T01:36:59.824Z,4.70
2022-08-10T01:37:59.813Z,3.90
2022-08-10T01:38:59.801Z,4.50
2022-08-10T01:39:59.813Z,4.30
2022-08-10T01:41:00.510Z,4.20
2022-08-10T01:41:59.798Z,4.20
2022-08-10T01:43:07.776Z,4.20
2022-08-10T01:43:59.807Z,4.00
2022-08-10T01:44:59.793Z,4.00
2022-08-10T01:46:01.724Z,4.20
2022-08-10T01:46:59.753Z,4.40
2022-08-10T01:47:59.921Z,4.20
2022-08-10T01:48:59.953Z,4.20
2022-08-10T01:49:59.743Z,3.60
2022-08-10T01:51:00.618Z,4.20
2022-08-10T01:52:00.371Z,4.20
2022-08-10T01:52:59.703Z,4.00
2022-08-10T01:54:00.202Z,4.30
2022-08-10T01:55:00.251Z,4.20
2022-08-10T01:55:59.681Z,4.70
2022-08-10T01:56:59.669Z,4.30
2022-08-10T01:58:00.201Z,4.30
2022-08-10T01:59:00.430Z,4.70
2022-08-10T02:00:02.309Z,4.40
2022-08-10T02:01:00.118Z,4.60
2022-08-10T02:01:59.638Z,4.50
2022-08-10T02:02:59.888Z,4.40
2022-08-10T02:04:04.522Z,4.70
2022-08-10T02:04:59.634Z,4.50
2022-08-10T02:05:59.599Z,4.70
2022-08-10T02:06:59.608Z,4.80
2022-08-10T02:07:59.619Z,4.50
2022-08-10T02:09:06.777Z,4.90
2022-08-10T02:09:59.674Z,5.00
2022-08-10T02:10:59.586Z,4.70
2022-08-10T02:12:07.299Z,4.80
2022-08-10T02:12:59.633Z,5.10
2022-08-10T02:13:59.600Z,4.60
2022-08-10T02:14:59.607Z,4.60
2022-08-10T02:16:01.500Z,4.70
2022-08-10T02:17:00.040Z,5.10
2022-08-10T02:18:02.112Z,4.80
2022-08-10T02:18:59.527Z,5.30
2022-08-10T02:19:59.876Z,5.10
2022-08-10T02:21:00.080Z,4.90
2022-08-10T02:22:35.221Z,5.00
2022-08-10T02:22:59.497Z,5.20
2022-08-10T02:24:00.439Z,5.10
2022-08-10T02:24:59.486Z,5.00
2022-08-10T02:25:59.697Z,5.20
2022-08-10T02:26:59.910Z,4.80
2022-08-10T02:27:59.608Z,5.00
2022-08-10T02:28:59.458Z,4.80
2022-08-10T02:29:59.453Z,5.20
2022-08-10T02:30:59.695Z,5.40
2022-08-10T02:31:59.994Z,5.00
2022-08-10T02:32:59.425Z,4.80
2022-08-10T02:33:59.599Z,5.10
2022-08-10T02:34:59.412Z,5.00
2022-08-10T02:35:59.437Z,5.10
2022-08-10T02:36:59.406Z,5.30
2022-08-10T02:37:59.465Z,4.90
2022-08-10T02:39:01.043Z,5.30
2022-08-10T02:39:59.806Z,5.30
2022-08-10T02:42:18.119Z,5.00
2022-08-10T02:45:01.110Z,4.80
2022-08-10T02:45:18.410Z,5.30
2022-08-10T02:45:20.242Z,5.00
2022-08-10T02:45:20.850Z,5.00
2022-08-10T02:45:59.364Z,5.10
2022-08-10T02:46:59.375Z,5.30
2022-08-10T02:47:59.563Z,5.50
2022-08-10T02:48:59.342Z,5.20
2022-08-10T02:50:00.284Z,5.40
2022-08-10T02:50:59.323Z,5.10
2022-08-10T02:52:06.584Z,5.20
2022-08-10T02:52:59.347Z,5.60
2022-08-10T02:53:59.292Z,5.50
2022-08-10T02:54:59.290Z,5.60
2022-08-10T02:55:59.291Z,5.90
2022-08-10T02:56:59.278Z,5.70
2022-08-10T02:58:15.344Z,5.70
2022-08-10T02:58:59.341Z,5.60
2022-08-10T02:59:59.243Z,5.60
2022-08-10T03:00:59.315Z,5.70
2022-08-10T03:01:59.503Z,5.40
2022-08-10T03:02:59.519Z,5.80
2022-08-10T03:03:59.221Z,5.50
2022-08-10T03:04:59.220Z,5.40
2022-08-10T03:05:59.210Z,5.80
2022-08-10T03:06:59.202Z,5.60
2022-08-10T03:07:59.233Z,6.00
2022-08-10T03:08:59.200Z,6.00
2022-08-10T03:09:59.170Z,5.80
2022-08-10T03:10:59.177Z,5.90
2022-08-10T03:12:35.660Z,5.50
2022-08-10T03:12:59.149Z,5.50
2022-08-10T03:13:59.731Z,5.50
2022-08-10T03:14:59.141Z,5.90
2022-08-10T03:15:59.151Z,5.90
2022-08-10T03:16:59.141Z,5.70
2022-08-10T03:17:59.202Z,5.80
2022-08-10T03:18:59.116Z,6.20
2022-08-10T03:20:34.807Z,5.90
2022-08-10T03:20:59.148Z,5.40
2022-08-10T03:21:59.108Z,5.90
2022-08-10T03:22:59.097Z,5.50
2022-08-10T03:23:59.088Z,5.50
2022-08-10T03:24:59.078Z,5.70
2022-08-10T03:25:59.730Z,5.70
2022-08-10T03:26:59.055Z,5.60
2022-08-10T03:27:59.072Z,5.40
2022-08-10T03:28:59.066Z,5.90
2022-08-10T03:30:28.477Z,5.40
2022-08-10T03:30:59.601Z,5.50
2022-08-10T03:31:59.028Z,5.50
2022-08-10T03:32:59.030Z,5.50
2022-08-10T03:33:59.014Z,5.40
2022-08-10T03:34:59.006Z,5.60
2022-08-10T03:36:43.072Z,5.50
2022-08-10T03:36:59.006Z,5.40
2022-08-10T03:37:59.738Z,5.50
2022-08-10T03:38:58.976Z,5.70
2022-08-10T03:39:58.976Z,5.30
2022-08-10T03:40:58.991Z,5.50
2022-08-10T03:41:58.985Z,5.50
2022-08-10T03:42:59.234Z,5.90
2022-08-10T03:43:58.947Z,5.30
2022-08-10T03:44:58.945Z,5.70
2022-08-10T03:45:58.934Z,5.30
2022-08-10T03:46:58.944Z,5.60
2022-08-10T03:47:59.583Z,5.20
2022-08-10T03:48:59.187Z,5.60
2022-08-10T03:49:58.904Z,5.20
2022-08-10T03:50:58.928Z,5.20
2022-08-10T03:51:58.921Z,5.40
2022-08-10T03:52:58.884Z,5.60
2022-08-10T03:54:05.854Z,5.40
2022-08-10T03:54:58.873Z,5.20
2022-08-10T03:56:28.289Z,5.50
2022-08-10T03:56:58.875Z,4.80
2022-08-10T03:57:58.853Z,4.90
2022-08-10T03:58:59.426Z,5.30
2022-08-10T03:59:58.831Z,5.20
2022-08-10T04:00:58.856Z,5.00
2022-08-10T04:02:45.529Z,5.40
2022-08-10T04:02:59.415Z,5.20
2022-08-10T04:04:11.583Z,4.90
2022-08-10T04:04:58.822Z,5.40
2022-08-10T04:05:58.792Z,5.30
2022-08-10T04:06:59.393Z,5.20
2022-08-10T04:07:58.778Z,5.10
2022-08-10T04:08:58.783Z,5.30
2022-08-10T04:09:59.015Z,5.30
2022-08-10T04:10:58.941Z,5.10
2022-08-10T04:11:58.980Z,5.40
2022-08-10T04:12:58.929Z,5.30
2022-08-10T04:13:58.752Z,5.90
2022-08-10T04:14:58.750Z,5.20
2022-08-10T04:15:58.759Z,5.60
2022-08-10T04:16:58.740Z,5.20
2022-08-10T04:18:05.892Z,5.50
2022-08-10T04:18:58.719Z,5.70
2022-08-10T04:19:58.719Z,5.80
2022-08-10T04:20:58.718Z,5.20
2022-08-10T04:21:59.459Z,5.40
2022-08-10T04:22:58.689Z,5.80
2022-08-10T04:23:58.676Z,5.30
2022-08-10T04:24:59.138Z,5.60
2022-08-10T04:25:58.668Z,5.70
2022-08-10T04:26:58.858Z,6.00
2022-08-10T04:27:58.659Z,5.00
2022-08-10T04:28:58.669Z,5.80
2022-08-10T04:29:58.679Z,5.50
2022-08-10T04:30:58.729Z,5.90
2022-08-10T04:31:59.619Z,5.50
2022-08-10T04:32:58.621Z,5.70
2022-08-10T04:33:58.727Z,5.30
2022-08-10T04:34:59.588Z,5.60
2022-08-10T04:35:59.494Z,5.50
2022-08-10T04:36:58.617Z,5.60
2022-08-10T04:37:58.577Z,5.80
2022-08-10T04:38:58.588Z,5.20
2022-08-10T04:39:58.906Z,5.60
2022-08-10T04:40:58.571Z,5.70
2022-08-10T04:41:58.597Z,5.30
2022-08-10T04:43:01.389Z,5.20
2022-08-10T04:43:58.604Z,5.20
2022-08-10T04:44:58.535Z,5.40
2022-08-10T04:45:58.527Z,5.30
2022-08-10T04:46:59.450Z,5.40
2022-08-10T04:48:03.051Z,5.50
2022-08-10T04:49:01.343Z,5.10
2022-08-10T04:49:58.505Z,5.60
2022-08-10T04:50:59.697Z,5.60
2022-08-10T04:51:58.904Z,5.50
2022-08-10T04:52:58.852Z,5.80
2022-08-10T04:54:03.991Z,5.20
2022-08-10T04:54:58.471Z,5.50
2022-08-10T04:55:58.453Z,5.30
2022-08-10T04:56:58.455Z,5.30
2022-08-10T04:57:58.453Z,5.20
2022-08-10T04:58:58.434Z,5.10
2022-08-10T04:59:58.426Z,5.10
2022-08-10T05:00:58.448Z,5.30
2022-08-10T05:02:28.023Z,5.40
2022-08-10T05:02:58.480Z,5.10
2022-08-10T05:04:34.699Z,5.10
2022-08-10T05:04:59.522Z,5.30
2022-08-10T05:05:58.382Z,5.20
2022-08-10T05:06:58.394Z,5.30
2022-08-10T05:07:59.184Z,5.10
2022-08-10T05:08:58.605Z,4.60
2022-08-10T05:10:01.474Z,5.10
2022-08-10T05:10:58.362Z,4.80
2022-08-10T05:11:58.421Z,5.10
2022-08-10T05:12:58.362Z,5.00
2022-08-10T05:13:58.351Z,5.00
2022-08-10T05:14:58.356Z,4.60
2022-08-10T05:15:58.331Z,4.70
2022-08-10T05:16:59.111Z,4.60
2022-08-10T05:18:08.227Z,4.70
2022-08-10T05:18:58.344Z,4.50
2022-08-10T05:20:03.277Z,4.70
2022-08-10T05:20:58.298Z,4.50
2022-08-10T05:22:04.228Z,4.60
2022-08-10T05:22:58.358Z,4.30
2022-08-10T05:23:58.270Z,4.30
2022-08-10T05:24:58.269Z,4.20
2022-08-10T05:25:58.357Z,4.60
2022-08-10T05:27:00.615Z,4.10
2022-08-10T05:28:00.957Z,4.10
2022-08-10T05:28:58.300Z,4.30
2022-08-10T05:30:02.515Z,4.40
2022-08-10T05:30:58.499Z,4.00
2022-08-10T05:31:58.209Z,4.20
2022-08-10T05:33:01.686Z,3.90
2022-08-10T05:33:58.238Z,4.50
2022-08-10T05:34:58.246Z,4.00
2022-08-10T05:35:58.463Z,4.20
2022-08-10T05:36:58.438Z,4.40
2022-08-10T05:38:10.301Z,4.30
2022-08-10T05:38:58.187Z,4.20
2022-08-10T05:39:58.217Z,4.10
2022-08-10T05:40:58.192Z,4.10
2022-08-10T05:41:58.138Z,4.40
2022-08-10T05:42:58.285Z,4.40
2022-08-10T05:43:58.768Z,4.30
2022-08-10T05:44:58.126Z,4.20
2022-08-10T05:46:17.521Z,4.20
2022-08-10T05:46:58.914Z,4.10
2022-08-10T05:48:41.732Z,4.20
2022-08-10T05:49:01.181Z,4.10
2022-08-10T05:49:58.084Z,4.30
2022-08-10T05:50:58.089Z,4.30
2022-08-10T05:51:58.069Z,4.30
2022-08-10T05:52:58.074Z,4.00
2022-08-10T05:54:01.059Z,3.90
2022-08-10T05:55:02.603Z,3.90
2022-08-10T05:55:58.045Z,4.10
2022-08-10T05:56:58.745Z,4.00
2022-08-10T05:57:58.455Z,4.10
2022-08-10T05:58:58.057Z,4.00
2022-08-10T06:00:33.383Z,4.10
2022-08-10T06:00:58.074Z,4.20
2022-08-10T06:02:33.316Z,4.20
2022-08-10T06:02:58.006Z,4.50
2022-08-10T06:03:58.087Z,4.20
2022-08-10T06:04:58.154Z,4.20
2022-08-10T06:05:57.984Z,4.20
2022-08-10T06:06:57.976Z,4.50
2022-08-10T06:07:57.965Z,4.10
2022-08-10T06:08:57.987Z,4.20
2022-08-10T06:09:59.165Z,4.20
2022-08-10T06:12:24.685Z,3.90
2022-08-10T06:12:27.317Z,3.80
2022-08-10T06:12:58.851Z,4.20
2022-08-10T06:14:12.935Z,4.20
2022-08-10T06:14:59.554Z,4.10
2022-08-10T06:15:57.913Z,4.00
2022-08-10T06:16:58.125Z,4.10
2022-08-10T06:18:01.573Z,4.30
2022-08-10T06:18:57.963Z,4.20
2022-08-10T06:19:57.883Z,4.30
2022-08-10T06:20:57.953Z,4.50
2022-08-10T06:22:01.363Z,3.90
2022-08-10T06:22:58.572Z,4.20
2022-08-10T06:23:57.992Z,4.30
2022-08-10T06:25:27.290Z,4.70
2022-08-10T06:26:10.670Z,4.10
2022-08-10T06:26:57.854Z,4.30
2022-08-10T06:27:57.841Z,4.40
2022-08-10T06:29:03.015Z,4.20
2022-08-10T06:29:57.842Z,4.30
2022-08-10T06:30:58.092Z,4.20
2022-08-10T06:31:57.815Z,4.10
2022-08-10T06:32:57.816Z,4.30
2022-08-10T06:33:57.829Z,4.40
2022-08-10T06:34:57.852Z,4.00
2022-08-10T06:35:57.785Z,4.00
2022-08-10T06:36:57.811Z,4.10
2022-08-10T06:37:57.771Z,4.00
2022-08-10T06:39:16.692Z,4.20
2022-08-10T06:39:57.991Z,3.70
2022-08-10T06:40:57.971Z,4.10
2022-08-10T06:42:16.328Z,3.90
2022-08-10T06:42:58.083Z,4.10
2022-08-10T06:43:57.791Z,3.90
2022-08-10T06:44:57.764Z,4.10
2022-08-10T06:46:07.777Z,4.30
2022-08-10T06:46:57.711Z,4.00
2022-08-10T06:47:58.315Z,4.10
2022-08-10T06:48:57.881Z,4.00
2022-08-10T06:49:59.808Z,3.90
2022-08-10T06:50:59.140Z,4.10
2022-08-10T06:51:57.775Z,4.00
2022-08-10T06:52:58.261Z,4.00
2022-08-10T06:53:58.550Z,4.00
2022-08-10T06:54:57.860Z,3.80
2022-08-10T06:55:57.740Z,3.80
2022-08-10T06:57:17.365Z,3.80
2022-08-10T06:58:00.118Z,4.00
2022-08-10T06:58:57.629Z,3.70
2022-08-10T06:59:58.469Z,3.90
2022-08-10T07:00:57.669Z,3.80
2022-08-10T07:01:57.610Z,3.80
2022-08-10T07:02:57.621Z,3.70
2022-08-10T07:03:57.929Z,3.80
2022-08-10T07:04:57.625Z,3.60
2022-08-10T07:05:57.580Z,3.50
2022-08-10T07:06:57.578Z,3.50
2022-08-10T07:07:57.578Z,3.50
2022-08-10T07:08:57.721Z,3.60
2022-08-10T07:09:57.560Z,3.60
2022-08-10T07:10:57.560Z,3.60
2022-08-10T07:11:57.969Z,3.60
2022-08-10T07:12:57.538Z,3.50
2022-08-10T07:14:16.213Z,4.20
2022-08-10T07:14:57.548Z,3.50
2022-08-10T07:16:00.160Z,3.80
2022-08-10T07:16:57.511Z,3.70
2022-08-10T07:17:57.501Z,3.90
2022-08-10T07:18:57.490Z,3.30
2022-08-10T07:19:57.500Z,3.50
2022-08-10T07:20:57.486Z,3.80
2022-08-10T07:21:58.159Z,3.20
2022-08-10T07:23:01.206Z,3.40
2022-08-10T07:24:00.640Z,3.30
2022-08-10T07:24:57.481Z,3.40
2022-08-10T07:25:58.139Z,3.50
2022-08-10T07:26:57.454Z,2.90
2022-08-10T07:27:58.619Z,3.40
2022-08-10T07:28:57.429Z,3.40
2022-08-10T07:29:57.441Z,3.40
2022-08-10T07:30:57.417Z,3.20
2022-08-10T07:31:57.934Z,3.00
2022-08-10T07:32:57.811Z,3.00
2022-08-10T07:33:57.447Z,3.20
2022-08-10T07:34:57.414Z,3.20
2022-08-10T07:35:57.439Z,3.00
2022-08-10T07:36:57.388Z,3.10
2022-08-10T07:37:57.358Z,3.10
2022-08-10T07:38:57.358Z,2.90
2022-08-10T07:39:58.475Z,3.00
2022-08-10T07:40:57.399Z,3.10
2022-08-10T07:41:57.349Z,3.00
2022-08-10T07:42:57.331Z,2.70
2022-08-10T07:43:57.341Z,3.00
2022-08-10T07:44:57.335Z,2.90
2022-08-10T07:45:57.469Z,2.80
2022-08-10T07:46:57.307Z,2.80
2022-08-10T07:47:57.312Z,2.70
2022-08-10T07:48:57.290Z,3.20
2022-08-10T07:49:57.287Z,2.90
2022-08-10T07:50:57.299Z,2.80
2022-08-10T07:51:57.293Z,2.80
2022-08-10T07:52:57.269Z,2.60
2022-08-10T07:53:57.258Z,2.80
2022-08-10T07:54:57.257Z,2.70
2022-08-10T07:56:03.662Z,2.60
2022-08-10T07:56:57.267Z,2.40
2022-08-10T07:57:57.248Z,2.70
2022-08-10T07:58:57.226Z,2.30
2022-08-10T07:59:57.218Z,2.70
2022-08-10T08:00:57.239Z,2.40
2022-08-10T08:01:57.243Z,2.70
2022-08-10T08:02:57.211Z,2.60
2022-08-10T08:04:05.758Z,2.70
2022-08-10T08:04:57.817Z,2.50
2022-08-10T08:06:02.621Z,2.60
2022-08-10T08:06:57.179Z,2.40
2022-08-10T08:07:57.167Z,2.70
2022-08-10T08:08:57.207Z,2.60
2022-08-10T08:10:00.968Z,2.50
2022-08-10T08:10:57.156Z,2.70
2022-08-10T08:11:57.146Z,2.50
2022-08-10T08:12:57.138Z,2.40
2022-08-10T08:13:57.143Z,2.60
2022-08-10T08:14:57.134Z,2.50
2022-08-10T08:16:19.613Z,2.50
2022-08-10T08:16:57.107Z,2.50
2022-08-10T08:17:57.478Z,2.70
2022-08-10T08:19:57.099Z,2.50
2022-08-10T08:20:57.087Z,2.50
2022-08-10T08:24:06.310Z,2.40
2022-08-10T08:24:07.807Z,2.50
2022-08-10T08:24:10.685Z,2.40
2022-08-10T08:24:57.058Z,2.50
2022-08-10T08:25:57.116Z,2.40
2022-08-10T08:26:57.049Z,2.50
2022-08-10T08:27:57.036Z,2.40
2022-08-10T08:28:57.027Z,2.50
2022-08-10T08:29:57.046Z,2.30
2022-08-10T08:30:57.197Z,2.50
2022-08-10T08:32:01.707Z,2.40
2022-08-10T08:32:57.005Z,2.30
2022-08-10T08:33:56.998Z,2.40
2022-08-10T08:34:56.986Z,2.50
2022-08-10T08:35:57.132Z,2.50
2022-08-10T08:36:59.581Z,2.40
2022-08-10T08:38:33.027Z,2.20
2022-08-10T08:38:56.965Z,2.30
2022-08-10T08:39:56.958Z,2.30
2022-08-10T08:40:56.977Z,2.70
2022-08-10T08:41:56.956Z,2.60
2022-08-10T08:42:56.927Z,2.30
2022-08-10T08:43:56.934Z,2.50
2022-08-10T08:44:56.926Z,2.40
2022-08-10T08:46:01.434Z,2.50
2022-08-10T08:46:59.180Z,2.60
2022-08-10T08:48:05.472Z,2.60
2022-08-10T08:48:56.898Z,2.70
2022-08-10T08:50:08.648Z,2.30
2022-08-10T08:50:57.837Z,2.50
2022-08-10T08:52:07.390Z,2.50
2022-08-10T08:52:56.867Z,2.50
2022-08-10T08:54:02.818Z,2.40
2022-08-10T08:54:56.848Z,2.40
2022-08-10T08:56:05.654Z,2.60
2022-08-10T08:56:56.857Z,2.50
2022-08-10T08:57:56.837Z,2.50
2022-08-10T08:58:56.827Z,2.40
2022-08-10T08:59:56.828Z,2.20
2022-08-10T09:00:56.827Z,2.40
2022-08-10T09:01:56.842Z,2.40
2022-08-10T09:02:56.808Z,2.50
2022-08-10T09:03:56.807Z,2.60
2022-08-10T09:04:56.787Z,2.60
2022-08-10T09:05:59.565Z,2.50
2022-08-10T09:06:56.777Z,2.40
2022-08-10T09:08:02.194Z,2.60
2022-08-10T09:08:56.772Z,2.50
2022-08-10T09:09:56.762Z,2.70
2022-08-10T09:10:56.756Z,2.60
2022-08-10T09:11:56.758Z,2.70
2022-08-10T09:12:56.737Z,2.50
2022-08-10T09:13:56.820Z,2.50
2022-08-10T09:14:56.716Z,2.70
2022-08-10T09:16:00.679Z,2.60
2022-08-10T09:16:56.728Z,2.40
2022-08-10T09:17:56.706Z,3.00
2022-08-10T09:18:56.725Z,2.70
2022-08-10T09:19:56.694Z,2.40
2022-08-10T09:20:56.676Z,2.50
2022-08-10T09:22:13.215Z,2.60
2022-08-10T09:22:57.730Z,2.50
2022-08-10T09:24:05.531Z,2.50
2022-08-10T09:24:56.649Z,2.70
2022-08-10T09:25:56.897Z,2.70
2022-08-10T09:26:56.642Z,2.50
2022-08-10T09:27:56.691Z,2.70
2022-08-10T09:29:12.538Z,2.50
2022-08-10T09:29:56.628Z,3.00
2022-08-10T09:31:20.865Z,2.60
2022-08-10T09:36:14.575Z,2.50
2022-08-10T09:36:16.445Z,2.70
2022-08-10T09:36:19.532Z,2.70
2022-08-10T09:36:23.503Z,2.50
2022-08-10T09:36:25.387Z,2.60
2022-08-10T09:36:56.589Z,2.70
2022-08-10T09:38:01.798Z,2.70
2022-08-10T09:38:56.585Z,2.70
2022-08-10T09:40:55.867Z,2.30
2022-08-10T09:41:02.975Z,2.50
2022-08-10T09:41:56.564Z,2.70
2022-08-10T09:43:21.529Z,2.80
2022-08-10T09:43:56.580Z,2.60
2022-08-10T09:44:57.992Z,2.70
2022-08-10T09:45:56.517Z,2.80
2022-08-10T09:46:56.519Z,2.90
2022-08-10T09:48:01.237Z,2.90
2022-08-10T09:48:56.557Z,2.70
2022-08-10T09:50:00.894Z,2.60
2022-08-10T09:51:34.901Z,2.40
2022-08-10T09:51:56.487Z,2.80
2022-08-10T09:52:58.637Z,2.60
2022-08-10T09:53:56.476Z,2.70
2022-08-10T09:54:56.458Z,2.60
2022-08-10T09:56:18.316Z,2.60
2022-08-10T09:57:07.146Z,2.70
2022-08-10T09:57:56.944Z,2.80
2022-08-10T09:59:26.714Z,2.80
2022-08-10T10:00:00.002Z,2.50
2022-08-10T10:00:57.088Z,2.80
2022-08-10T10:02:02.998Z,2.90
2022-08-10T10:02:56.499Z,2.50
2022-08-10T10:03:56.446Z,2.80
2022-08-10T10:04:56.441Z,2.80
2022-08-10T10:05:56.389Z,2.50
2022-08-10T10:06:56.377Z,2.80
2022-08-10T10:07:56.386Z,2.80
2022-08-10T10:08:58.453Z,2.70
2022-08-10T10:09:56.369Z,3.10
2022-08-10T10:10:56.349Z,2.70
2022-08-10T10:11:56.359Z,2.40
2022-08-10T10:12:56.367Z,2.60
2022-08-10T10:14:02.634Z,2.90
2022-08-10T10:14:56.336Z,2.60
2022-08-10T10:15:57.317Z,2.50
2022-08-10T10:16:57.248Z,2.70
2022-08-10T10:17:56.317Z,2.80
2022-08-10T10:18:56.347Z,2.70
2022-08-10T10:19:56.397Z,2.70
2022-08-10T10:20:56.303Z,2.80
2022-08-10T10:21:56.831Z,2.80
2022-08-10T10:22:56.276Z,2.60
2022-08-10T10:24:22.299Z,2.80
2022-08-10T10:24:56.280Z,2.70
2022-08-10T10:26:01.333Z,2.90
2022-08-10T10:26:56.272Z,2.70
2022-08-10T10:27:56.274Z,3.00
2022-08-10T10:29:59.354Z,2.60
2022-08-10T10:30:56.219Z,2.60
2022-08-10T10:31:56.225Z,2.80
2022-08-10T10:32:58.340Z,2.50
2022-08-10T10:33:56.226Z,2.80
2022-08-10T10:34:56.199Z,2.70
2022-08-10T10:35:56.198Z,2.70
2022-08-10T10:36:56.197Z,2.70
2022-08-10T10:38:01.860Z,2.50
2022-08-10T10:38:56.179Z,2.60
2022-08-10T10:39:56.260Z,2.50
2022-08-10T10:40:56.185Z,2.80
2022-08-10T10:42:04.523Z,2.70
2022-08-10T10:42:56.149Z,2.50
2022-08-10T10:43:56.891Z,2.60
2022-08-10T10:44:56.149Z,2.60
2022-08-10T10:45:56.137Z,2.60
2022-08-10T10:46:56.128Z,2.50
2022-08-10T10:47:56.157Z,2.70
2022-08-10T10:48:56.277Z,2.80
2022-08-10T10:49:56.108Z,2.60
2022-08-10T10:50:56.098Z,2.70
2022-08-10T10:51:56.096Z,2.40
2022-08-10T10:52:56.110Z,2.80
2022-08-10T10:53:56.077Z,2.60
2022-08-10T10:54:56.069Z,2.60
2022-08-10T10:56:14.551Z,2.80
2022-08-10T10:56:56.058Z,2.70
2022-08-10T10:57:58.771Z,2.60
2022-08-10T10:58:56.045Z,2.70
2022-08-10T10:59:57.645Z,2.50
2022-08-10T11:00:56.077Z,2.70
2022-08-10T11:01:56.030Z,2.60
2022-08-10T11:02:56.038Z,3.20
2022-08-10T11:03:56.017Z,3.00
2022-08-10T11:04:57.470Z,2.40
2022-08-10T11:05:56.164Z,2.70
2022-08-10T11:06:55.998Z,2.60
2022-08-10T11:07:56.830Z,2.40
2022-08-10T11:08:56.014Z,2.80
2022-08-10T11:10:07.018Z,2.40
2022-08-10T11:10:56.444Z,2.50
2022-08-10T11:12:00.347Z,2.60
2022-08-10T11:12:55.979Z,2.50
2022-08-10T11:14:24.597Z,2.60
2022-08-10T11:14:55.946Z,2.60
2022-08-10T11:15:55.950Z,2.50
2022-08-10T11:16:58.575Z,2.80
2022-08-10T11:17:56.072Z,2.50
2022-08-10T11:18:55.953Z,2.60
2022-08-10T11:20:02.054Z,2.60
2022-08-10T11:20:55.917Z,2.40
2022-08-10T11:21:55.911Z,2.50
2022-08-10T11:22:55.920Z,2.40
2022-08-10T11:24:48.748Z,2.30
2022-08-10T11:24:56.369Z,2.50
2022-08-10T11:25:55.880Z,2.70
2022-08-10T11:26:55.880Z,2.40
2022-08-10T11:27:55.889Z,2.70
2022-08-10T11:28:55.868Z,2.60
2022-08-10T11:29:55.894Z,2.60
2022-08-10T11:30:55.850Z,2.40
2022-08-10T11:31:55.859Z,2.30
2022-08-10T11:32:55.850Z,2.40
2022-08-10T11:35:10.163Z,2.50
2022-08-10T11:35:55.831Z,2.70
2022-08-10T11:36:55.831Z,2.60
2022-08-10T11:38:31.469Z,2.40
2022-08-10T11:39:13.473Z,2.40
2022-08-10T11:39:55.876Z,2.10
2022-08-10T11:40:55.799Z,2.50
2022-08-10T11:42:11.751Z,2.40
2022-08-10T11:42:55.799Z,2.80
2022-08-10T11:43:55.779Z,2.70
2022-08-10T11:44:55.802Z,2.40
2022-08-10T11:45:55.807Z,2.40
2022-08-10T11:46:55.769Z,2.50
2022-08-10T11:47:55.803Z,2.70
2022-08-10T11:48:57.873Z,2.50
2022-08-10T11:49:55.748Z,2.60
2022-08-10T11:50:55.751Z,2.40
2022-08-10T11:51:55.739Z,2.60
2022-08-10T11:52:55.759Z,2.50
2022-08-10T11:53:55.748Z,2.50
2022-08-10T11:54:55.719Z,2.40
2022-08-10T11:55:55.719Z,2.60
2022-08-10T11:57:01.775Z,2.50
2022-08-10T11:57:55.985Z,2.40
2022-08-10T11:58:55.710Z,2.30
2022-08-10T11:59:57.888Z,2.40
2022-08-10T12:00:55.700Z,2.20
2022-08-10T12:01:55.711Z,2.50
2022-08-10T12:02:55.772Z,2.70
2022-08-10T12:03:55.669Z,2.70
2022-08-10T12:04:56.310Z,2.60
2022-08-10T12:05:55.678Z,2.30
2022-08-10T12:06:56.596Z,2.50
2022-08-10T12:10:08.932Z,2.40
2022-08-10T12:10:08.983Z,2.40
2022-08-10T12:10:10.939Z,2.40
2022-08-10T12:10:55.639Z,2.40
2022-08-10T12:11:55.638Z,2.20
2022-08-10T12:12:55.632Z,2.60
2022-08-10T12:14:19.631Z,2.60
2022-08-10T12:14:55.627Z,2.30
2022-08-10T12:15:55.613Z,2.30
2022-08-10T12:16:55.614Z,2.40
2022-08-10T12:17:55.609Z,2.20
2022-08-10T12:18:55.650Z,2.30
2022-08-10T12:20:01.373Z,2.40
2022-08-10T12:20:55.608Z,2.50
2022-08-10T12:21:55.579Z,2.70
2022-08-10T12:22:55.579Z,2.40
2022-08-10T12:24:03.086Z,2.80
2022-08-10T12:24:55.582Z,2.30
2022-08-10T12:25:58.460Z,2.30
2022-08-10T12:26:55.558Z,2.30
2022-08-10T12:27:56.030Z,2.60
2022-08-10T12:28:55.570Z,2.40
2022-08-10T12:29:55.532Z,2.40
2022-08-10T12:30:55.537Z,2.30
2022-08-10T12:31:55.519Z,2.20
2022-08-10T12:32:55.533Z,2.30
2022-08-10T12:34:02.565Z,2.30
2022-08-10T12:34:55.518Z,2.40
2022-08-10T12:36:17.025Z,2.40
2022-08-10T12:36:55.659Z,2.50
2022-08-10T12:37:55.489Z,2.30
2022-08-10T12:38:55.499Z,2.40
2022-08-10T12:40:06.925Z,2.20
2022-08-10T12:40:56.407Z,2.40
2022-08-10T12:41:55.469Z,2.40
2022-08-10T12:43:01.527Z,2.30
2022-08-10T12:44:07.187Z,2.30
2022-08-10T12:44:55.500Z,2.40
2022-08-10T12:45:55.449Z,2.30
2022-08-10T12:46:55.449Z,2.60
2022-08-10T12:47:55.441Z,2.20
2022-08-10T12:48:55.861Z,2.40
2022-08-10T12:50:29.729Z,2.50
2022-08-10T12:50:55.440Z,2.70
2022-08-10T12:51:55.419Z,2.20
2022-08-10T12:52:55.429Z,2.30
2022-08-10T12:53:55.602Z,2.30
2022-08-10T12:54:55.410Z,2.40
2022-08-10T12:55:55.389Z,2.50
2022-08-10T12:56:55.747Z,2.40
2022-08-10T12:57:55.404Z,2.40
2022-08-10T12:58:58.235Z,2.20
2022-08-10T12:59:55.390Z,2.40
2022-08-10T13:01:15.074Z,2.40
2022-08-10T13:02:09.856Z,2.30
2022-08-10T13:02:55.406Z,2.20
2022-08-10T13:04:23.545Z,2.30
2022-08-10T13:04:55.348Z,2.20
2022-08-10T13:06:02.141Z,2.10
2022-08-10T13:06:55.342Z,2.30
2022-08-10T13:08:03.968Z,2.30
2022-08-10T13:08:55.381Z,2.10
2022-08-10T13:09:55.813Z,2.10
2022-08-10T13:10:55.320Z,2.30
2022-08-10T13:12:38.748Z,2.30
2022-08-10T13:12:55.299Z,2.40
2022-08-10T13:13:55.331Z,2.10
2022-08-10T13:14:55.293Z,2.30
2022-08-10T13:15:55.282Z,2.30
2022-08-10T13:16:55.281Z,2.20
2022-08-10T13:17:55.276Z,2.30
2022-08-10T13:18:55.391Z,2.30
2022-08-10T13:19:58.593Z,2.50
2022-08-10T13:20:55.271Z,2.30